RPA3907 KEWR-KKIA
Flight info
| Callsign | RPA3907 |
|---|---|
| Flight time | N/A |
| Altitude | 22000 |
| Route | PARKE HYPER9 |
| Aircraft | E75L/M-SDE3FGIJ1KRWXY/LB2 |
Departure
| Time | 2026-04-26 14:28 |
|---|---|
| Airport | Newark Liberty International Airport (KEWR) |
Arrival
| Time | N/A |
|---|---|
| Airport | KKIA |
| Time | Latitude | Longitude | Altitude | Speed | Heading |
|---|---|---|---|---|---|
| 2026-04-26 14:23 | 40.69427 | -74.17073 | 10 ft | 5 kts | 158° |
| 2026-04-26 14:23 | 40.69371 | -74.17072 | 10 ft | 11 kts | 183° |
| 2026-04-26 14:24 | 40.69281 | -74.17124 | 10 ft | 17 kts | 205° |
| 2026-04-26 14:24 | 40.69147 | -74.17207 | 10 ft | 24 kts | 207° |
| 2026-04-26 14:24 | 40.68991 | -74.17307 | 10 ft | 21 kts | 206° |
| 2026-04-26 14:24 | 40.68851 | -74.17394 | 10 ft | 22 kts | 204° |
| 2026-04-26 14:25 | 40.68736 | -74.17453 | 10 ft | 7 kts | 138° |
| 2026-04-26 14:25 | 40.68714 | -74.17384 | 10 ft | 8 kts | 126° |
| 2026-04-26 14:25 | 40.68675 | -74.17379 | 10 ft | 6 kts | 219° |
| 2026-04-26 14:25 | 40.68623 | -74.17420 | 10 ft | 10 kts | 206° |
| 2026-04-26 14:26 | 40.68540 | -74.17471 | 10 ft | 15 kts | 204° |
| 2026-04-26 14:26 | 40.68431 | -74.17539 | 10 ft | 19 kts | 205° |
| 2026-04-26 14:26 | 40.68296 | -74.17629 | 10 ft | 23 kts | 208° |
| 2026-04-26 14:26 | 40.68135 | -74.17728 | 10 ft | 26 kts | 208° |
| 2026-04-26 14:27 | 40.68042 | -74.17768 | 10 ft | 12 kts | 147° |
| 2026-04-26 14:27 | 40.68023 | -74.17654 | 10 ft | 19 kts | 51° |
| 2026-04-26 14:27 | 40.68289 | -74.17471 | 11 ft | 75 kts | 25° |
| 2026-04-26 14:27 | 40.68928 | -74.17065 | 11 ft | 128 kts | 26° |
| 2026-04-26 14:28 | 40.69823 | -74.16484 | 206 ft | 151 kts | 26° |
| 2026-04-26 14:28 | 40.70796 | -74.15945 | 849 ft | 150 kts | 12° |
| 2026-04-26 14:28 | 40.71846 | -74.16054 | 1471 ft | 155 kts | 352° |
| 2026-04-26 14:28 | 40.72971 | -74.16357 | 1862 ft | 180 kts | 354° |
| 2026-04-26 14:29 | 40.74271 | -74.16650 | 2323 ft | 201 kts | 355° |
| 2026-04-26 14:29 | 40.75703 | -74.16934 | 2989 ft | 213 kts | 356° |
| 2026-04-26 14:29 | 40.77210 | -74.17266 | 3541 ft | 234 kts | 344° |
| 2026-04-26 14:29 | 40.78546 | -74.18637 | 4071 ft | 263 kts | 306° |
| 2026-04-26 14:30 | 40.79047 | -74.20978 | 4831 ft | 279 kts | 269° |